Time;durP1;ratioP1;P1;durP2;ratioP2;P2;SDS_P1;SDS_P2;PMS_P1;PMS_P2;Temp;Humidity;BMP_temperature;BMP_pressure;BME280_temperature;BME280_humidity;BME280_pressure;Samples;Min_cycle;Max_cycle;Signal;HPM_P1;HPM_P2
2021/08/24 00:01:49;;;;;;;8.13;5.33;;;;;;;23.27;55.20;94950.22;5096530;28;20533;-83
2021/08/24 00:04:16;;;;;;;6.57;5.30;;;;;;;23.21;54.89;94957.25;5096217;28;20975;-82
2021/08/24 00:06:43;;;;;;;7.70;5.50;;;;;;;23.16;55.57;94949.00;5096463;28;20445;-83
2021/08/24 00:09:10;;;;;;;6.07;5.57;;;;;;;23.30;56.01;94949.81;5096643;28;20442;-82
2021/08/24 00:11:37;;;;;;;10.83;5.80;;;;;;;23.39;55.17;94956.59;5044265;28;20531;-82
2021/08/24 00:14:06;;;;;;;6.87;6.27;;;;;;;23.30;55.21;94950.63;5096305;28;20852;-83
2021/08/24 00:16:36;;;;;;;6.03;5.43;;;;;;;23.31;56.38;94948.78;5096102;28;20484;-82
2021/08/24 00:19:03;;;;;;;9.83;6.03;;;;;;;23.31;55.16;94941.56;5096264;28;20447;-83
2021/08/24 00:21:30;;;;;;;5.93;5.43;;;;;;;23.35;56.63;94958.03;5096061;28;21017;-83
2021/08/24 00:23:57;;;;;;;7.97;5.40;;;;;;;23.38;57.54;94947.75;5096012;28;20488;-83
2021/08/24 00:26:24;;;;;;;6.53;6.03;;;;;;;23.12;55.59;94943.22;5095762;28;20545;-83
2021/08/24 00:28:51;;;;;;;9.20;6.17;;;;;;;23.14;57.14;94946.53;5096570;28;20469;-83
2021/08/24 00:31:18;;;;;;;10.27;5.20;;;;;;;23.08;57.12;94941.97;5060092;28;20841;-82
2021/08/24 00:33:46;;;;;;;8.00;6.10;;;;;;;23.13;57.05;94936.00;5095826;28;20989;-82
2021/08/24 00:36:14;;;;;;;8.00;5.73;;;;;;;23.20;56.41;94939.53;5095840;28;20905;-82
2021/08/24 00:38:42;;;;;;;6.27;5.67;;;;;;;23.14;56.31;94940.34;5096042;28;20438;-82
2021/08/24 00:41:10;;;;;;;6.43;5.93;;;;;;;23.06;57.07;94944.03;5095822;28;20500;-82
2021/08/24 00:43:38;;;;;;;7.07;6.20;;;;;;;23.05;57.49;94930.88;5095635;28;20457;-82
2021/08/24 00:46:16;;;;;;;6.93;6.23;;;;;;;22.99;57.67;94926.34;5095886;28;20454;-82
2021/08/24 00:48:44;;;;;;;11.10;5.70;;;;;;;22.81;57.66;94927.75;5096318;28;20538;-82
2021/08/24 00:51:16;;;;;;;6.70;6.10;;;;;;;22.74;59.02;94932.25;5043263;28;20521;-82
2021/08/24 00:53:44;;;;;;;6.30;5.47;;;;;;;22.75;59.60;94931.22;5047952;28;20543;-82
2021/08/24 00:56:12;;;;;;;6.70;6.10;;;;;;;22.53;59.96;94929.75;5116089;28;20937;-82
2021/08/24 00:58:39;;;;;;;7.13;6.47;;;;;;;22.55;60.38;94935.72;5110911;28;20532;-83
2021/08/24 01:01:08;;;;;;;8.03;6.30;;;;;;;22.60;60.00;94935.94;5095469;28;20441;-82
2021/08/24 01:03:39;;;;;;;7.00;6.30;;;;;;;22.52;61.01;94934.25;5094637;28;20449;-82
2021/08/24 01:06:11;;;;;;;5.80;5.30;;;;;;;22.55;60.21;94933.88;5043356;28;20806;-82
2021/08/24 01:08:59;;;;;;;7.03;6.30;;;;;;;22.54;60.51;94928.72;5095023;28;20450;-82
2021/08/24 01:11:35;;;;;;;7.00;6.40;;;;;;;22.50;60.04;94930.16;5095095;28;20445;-83
2021/08/24 01:14:19;;;;;;;10.07;6.60;;;;;;;22.48;60.95;94918.84;5095055;28;20484;-82
2021/08/24 01:16:53;;;;;;;6.93;6.30;;;;;;;22.39;60.97;94928.06;5095003;28;20806;-82
2021/08/24 01:19:55;;;;;;;8.07;6.73;;;;;;;22.46;61.08;94926.22;5059208;28;20804;-83
2021/08/24 01:22:56;;;;;;;6.93;6.23;;;;;;;22.45;61.14;94930.75;4996272;28;20460;-82
2021/08/24 01:25:30;;;;;;;7.23;6.53;;;;;;;22.37;60.48;94924.78;4935366;29;20478;-82
2021/08/24 01:28:03;;;;;;;7.43;6.50;;;;;;;22.34;61.69;94922.50;4935488;29;20532;-82
2021/08/24 01:30:48;;;;;;;7.50;6.80;;;;;;;22.30;60.87;94926.63;4934612;29;20535;-82
2021/08/24 01:33:26;;;;;;;8.30;6.60;;;;;;;22.19;61.96;94917.31;4934866;29;20496;-82
2021/08/24 01:36:17;;;;;;;8.10;6.30;;;;;;;22.29;62.04;94919.63;4935024;29;20451;-82
2021/08/24 01:38:51;;;;;;;7.00;6.30;;;;;;;22.14;62.47;94917.91;4934974;29;20515;-82
2021/08/24 01:41:22;;;;;;;7.07;6.47;;;;;;;22.23;61.73;94924.72;4935196;29;20540;-82
2021/08/24 01:43:57;;;;;;;8.93;6.93;;;;;;;22.18;61.49;94924.50;4934970;29;20444;-82
2021/08/24 01:46:32;;;;;;;7.07;6.47;;;;;;;22.15;61.46;94919.56;4934927;29;20516;-82
2021/08/24 01:49:03;;;;;;;7.90;6.80;;;;;;;22.06;61.93;94920.78;4934609;29;20448;-82
2021/08/24 01:51:36;;;;;;;7.60;6.90;;;;;;;22.04;62.56;94922.81;4934664;29;20549;-82
2021/08/24 01:54:10;;;;;;;8.00;6.70;;;;;;;22.08;62.68;94920.56;4934448;29;20916;-83
2021/08/24 01:56:39;;;;;;;7.00;6.30;;;;;;;21.93;62.89;94915.34;4934657;29;20820;-82
2021/08/24 01:59:10;;;;;;;6.67;6.03;;;;;;;21.95;63.50;94918.63;4995378;28;20921;-82
2021/08/24 02:01:43;;;;;;;9.07;6.83;;;;;;;21.91;63.00;94912.84;5040716;28;20533;-82
2021/08/24 02:04:14;;;;;;;8.47;7.57;;;;;;;21.85;63.01;94913.66;5073824;28;20468;-82
2021/08/24 02:06:46;;;;;;;10.30;6.90;;;;;;;21.89;63.77;94916.75;5073689;28;20451;-82
2021/08/24 02:09:18;;;;;;;7.30;6.60;;;;;;;21.97;63.94;94911.22;5073687;28;20444;-82
2021/08/24 02:11:46;;;;;;;7.10;6.40;;;;;;;21.97;62.68;94911.22;5073671;28;20443;-83
2021/08/24 02:14:16;;;;;;;8.13;7.30;;;;;;;22.01;62.88;94906.34;5072810;28;20486;-82
2021/08/24 02:16:45;;;;;;;7.37;6.67;;;;;;;22.09;62.65;94907.00;5073834;28;20446;-82
2021/08/24 02:19:18;;;;;;;9.00;7.27;;;;;;;21.99;62.93;94897.69;5073699;28;20453;-82
2021/08/24 02:21:52;;;;;;;7.70;7.07;;;;;;;22.05;62.13;94897.75;5073991;28;20485;-81
2021/08/24 02:24:23;;;;;;;9.20;6.40;;;;;;;22.00;63.00;94904.69;5073312;28;20532;-82
2021/08/24 02:26:52;;;;;;;10.63;7.40;;;;;;;21.97;63.26;94895.19;5073634;28;20525;-82
2021/08/24 02:29:19;;;;;;;7.90;7.10;;;;;;;21.84;63.38;94889.81;5073249;28;21019;-82
2021/08/24 02:31:53;;;;;;;8.13;7.20;;;;;;;21.85;63.94;94899.47;5093599;28;20529;-83
2021/08/24 02:34:27;;;;;;;7.80;7.10;;;;;;;21.82;63.72;94898.03;5093629;28;20938;-82
2021/08/24 02:37:01;;;;;;;8.83;6.90;;;;;;;21.86;63.34;94893.94;5093301;28;20439;-82
2021/08/24 02:39:35;;;;;;;16.47;7.93;;;;;;;21.81;63.07;94884.88;5093741;28;20449;-83
2021/08/24 02:42:13;;;;;;;9.33;8.37;;;;;;;21.73;63.48;94890.41;5041309;28;20526;-82
2021/08/24 02:44:47;;;;;;;10.13;8.17;;;;;;;21.80;63.49;94888.56;5093378;28;20818;-82
2021/08/24 02:47:15;;;;;;;9.80;7.73;;;;;;;21.69;63.75;94891.81;5093653;28;20449;-83
2021/08/24 02:49:42;;;;;;;9.13;7.43;;;;;;;21.72;63.82;94894.09;5093765;28;20456;-82
2021/08/24 02:52:12;;;;;;;8.90;7.50;;;;;;;21.62;63.86;94884.56;5093660;28;20523;-82
2021/08/24 02:54:42;;;;;;;7.97;7.20;;;;;;;21.37;64.79;94894.09;5093377;28;20490;-82
2021/08/24 02:57:09;;;;;;;11.63;8.23;;;;;;;21.33;65.61;94888.31;5093471;28;20524;-83
2021/08/24 02:59:37;;;;;;;8.63;7.73;;;;;;;21.43;64.98;94897.84;5093111;28;20520;-82
2021/08/24 03:02:06;;;;;;;8.00;7.30;;;;;;;21.31;65.16;94893.03;5093023;28;20475;-83
2021/08/24 03:04:33;;;;;;;19.77;8.60;;;;;;;21.44;65.35;94894.97;5092856;28;21026;-82
2021/08/24 03:07:03;;;;;;;10.77;8.07;;;;;;;21.27;65.70;94896.28;5093125;28;21013;-82
2021/08/24 03:09:34;;;;;;;11.23;7.80;;;;;;;21.38;65.09;94893.06;5093007;28;20440;-82
2021/08/24 03:12:11;;;;;;;7.10;6.50;;;;;;;21.47;65.76;94891.91;5093131;28;20526;-82
2021/08/24 03:14:47;;;;;;;8.80;6.93;;;;;;;21.64;65.26;94885.19;5092676;28;20850;-82
2021/08/24 03:17:17;;;;;;;14.73;7.30;;;;;;;21.50;64.98;94886.16;5092939;28;20440;-83
2021/08/24 03:19:47;;;;;;;9.10;8.20;;;;;;;21.51;65.13;94879.81;5093072;28;20447;-82
2021/08/24 03:22:15;;;;;;;9.13;8.03;;;;;;;21.52;65.32;94884.13;5093698;28;20451;-82
2021/08/24 03:24:44;;;;;;;8.13;7.33;;;;;;;21.48;65.83;94885.53;5092833;28;20442;-82
2021/08/24 03:27:11;;;;;;;9.60;7.80;;;;;;;21.55;65.41;94886.41;5092648;28;20966;-82
2021/08/24 03:29:39;;;;;;;9.80;7.83;;;;;;;21.54;65.16;94889.25;5092468;28;20526;-82
2021/08/24 03:32:08;;;;;;;11.63;8.00;;;;;;;21.59;65.22;94889.50;5093056;28;20885;-82
2021/08/24 03:34:35;;;;;;;8.60;7.80;;;;;;;21.64;64.83;94887.88;5092764;28;20574;-82
2021/08/24 03:37:02;;;;;;;14.40;9.47;;;;;;;21.57;64.78;94888.88;5057262;28;20528;-82
2021/08/24 03:39:29;;;;;;;12.73;9.10;;;;;;;21.56;65.02;94882.69;5092583;28;20524;-83
2021/08/24 03:41:58;;;;;;;10.50;9.07;;;;;;;21.52;65.29;94883.28;5092518;28;20477;-83
2021/08/24 03:44:24;;;;;;;11.00;9.47;;;;;;;21.47;65.32;94881.22;5092498;28;20444;-82
2021/08/24 03:46:51;;;;;;;9.83;8.17;;;;;;;21.43;65.64;94879.16;5093081;28;20476;-82
2021/08/24 03:49:18;;;;;;;10.97;8.13;;;;;;;21.39;66.06;94886.69;5092509;28;20530;-82
2021/08/24 03:51:45;;;;;;;11.87;8.57;;;;;;;21.34;65.88;94883.81;5092353;28;20532;-82
2021/08/24 03:54:12;;;;;;;9.77;7.97;;;;;;;21.31;66.34;94886.88;5056830;28;20471;-82
2021/08/24 03:56:41;;;;;;;15.27;8.90;;;;;;;21.32;66.17;94885.84;5073897;28;20519;-82
2021/08/24 03:59:10;;;;;;;10.47;8.73;;;;;;;21.34;66.31;94884.63;5092849;28;20539;-82
2021/08/24 04:01:37;;;;;;;9.07;8.03;;;;;;;21.30;66.50;94888.72;5092451;28;20492;-83
2021/08/24 04:04:04;;;;;;;11.83;8.40;;;;;;;21.43;66.28;94879.97;5092558;28;20479;-82
2021/08/24 04:06:33;;;;;;;11.13;7.90;;;;;;;21.57;66.12;94883.53;5092623;28;20880;-82
2021/08/24 04:09:00;;;;;;;12.77;9.27;;;;;;;21.67;65.21;94888.50;5092469;28;20829;-83
2021/08/24 04:11:27;;;;;;;11.90;9.17;;;;;;;21.76;65.05;94888.16;5057064;28;21023;-82
2021/08/24 04:13:54;;;;;;;10.57;9.13;;;;;;;21.84;64.58;94895.16;5092294;28;20488;-82
2021/08/24 04:16:23;;;;;;;12.73;10.07;;;;;;;21.82;64.49;94890.00;5092354;28;20621;-83
2021/08/24 04:18:50;;;;;;;11.00;9.90;;;;;;;21.92;64.34;94897.66;5092305;28;20529;-83
2021/08/24 04:21:18;;;;;;;12.60;9.70;;;;;;;22.18;63.82;94895.09;5092191;28;20517;-83
2021/08/24 04:23:48;;;;;;;12.13;9.47;;;;;;;22.48;63.04;94892.09;5039969;28;20529;-83
2021/08/24 04:26:16;;;;;;;13.53;9.40;;;;;;;22.91;61.56;94889.09;5092510;28;20549;-82
2021/08/24 04:28:44;;;;;;;17.70;10.50;;;;;;;23.28;59.99;94880.41;5092070;28;20997;-82
2021/08/24 04:31:15;;;;;;;20.07;10.70;;;;;;;23.61;58.68;94885.72;5092682;28;20570;-82
2021/08/24 04:33:44;;;;;;;13.67;11.20;;;;;;;23.86;57.61;94887.69;5092596;28;20876;-82
2021/08/24 04:36:11;;;;;;;12.93;10.53;;;;;;;24.13;57.07;94896.44;5092405;28;20796;-82
2021/08/24 04:38:38;;;;;;;12.87;10.87;;;;;;;24.45;56.43;94900.84;5094171;28;20444;-82
2021/08/24 04:41:06;;;;;;;18.10;11.23;;;;;;;24.70;55.41;94896.38;5095665;28;20441;-82
2021/08/24 04:43:34;;;;;;;14.27;10.07;;;;;;;24.87;55.01;94898.53;5095589;28;20430;-82
2021/08/24 04:46:03;;;;;;;11.43;10.00;;;;;;;24.75;54.86;94894.88;5096265;28;20956;-82
2021/08/24 04:48:30;;;;;;;16.07;10.20;;;;;;;24.77;54.81;94900.84;5096469;28;20438;-84
2021/08/24 04:50:58;;;;;;;13.20;11.10;;;;;;;24.86;55.02;94903.03;5044617;28;20445;-84
2021/08/24 04:53:25;;;;;;;19.50;10.50;;;;;;;24.79;54.27;94901.47;5096419;28;20506;-83
2021/08/24 04:55:53;;;;;;;18.20;9.33;;;;;;;24.77;54.70;94903.53;5095892;28;20501;-83
2021/08/24 04:58:20;;;;;;;13.97;9.70;;;;;;;24.71;55.23;94900.69;5096248;28;20534;-83
2021/08/24 05:00:47;;;;;;;18.00;10.07;;;;;;;24.93;54.71;94903.03;5101008;28;20529;-82
2021/08/24 05:03:15;;;;;;;34.17;10.40;;;;;;;25.11;53.73;94900.41;5109675;28;20476;-82
2021/08/24 05:05:42;;;;;;;16.90;10.47;;;;;;;25.35;53.78;94901.44;5104000;28;20482;-83
2021/08/24 05:08:11;;;;;;;29.30;10.90;;;;;;;25.51;52.86;94900.88;5095913;28;20435;-83
2021/08/24 05:10:38;;;;;;;20.90;10.03;;;;;;;25.47;52.90;94912.28;5095693;28;20436;-83
2021/08/24 05:13:05;;;;;;;15.60;9.20;;;;;;;25.48;52.43;94901.31;5095697;28;20518;-84
2021/08/24 05:15:32;;;;;;;13.97;9.87;;;;;;;25.59;52.22;94911.34;5095573;28;20558;-83
2021/08/24 05:18:00;;;;;;;14.10;10.20;;;;;;;25.42;52.80;94904.88;5095875;28;20443;-82
2021/08/24 05:20:27;;;;;;;13.47;9.27;;;;;;;25.32;53.40;94902.69;5095239;28;21033;-82
2021/08/24 05:22:54;;;;;;;10.20;9.20;;;;;;;25.40;53.50;94906.97;5095317;28;20810;-83
2021/08/24 05:25:24;;;;;;;15.87;8.60;;;;;;;25.46;54.17;94916.03;5095286;28;20530;-83
2021/08/24 05:27:51;;;;;;;15.33;8.80;;;;;;;25.65;54.00;94917.69;5095089;28;20461;-82
2021/08/24 05:30:23;;;;;;;14.13;8.93;;;;;;;25.77;53.52;94918.63;5059550;28;20631;-82
2021/08/24 05:32:51;;;;;;;20.03;9.00;;;;;;;25.88;53.46;94917.06;5095619;28;20451;-82
2021/08/24 05:35:19;;;;;;;21.30;8.63;;;;;;;26.02;52.92;94921.25;5094809;28;20578;-81
2021/08/24 05:37:47;;;;;;;22.77;9.90;;;;;;;25.99;53.13;94913.59;5095366;28;20527;-83
2021/08/24 05:40:14;;;;;;;20.67;9.27;;;;;;;26.22;52.98;94918.31;5095312;28;20438;-84
2021/08/24 05:42:42;;;;;;;10.97;8.40;;;;;;;26.44;51.53;94919.50;5095254;28;20438;-85
2021/08/24 05:45:10;;;;;;;10.23;8.17;;;;;;;26.56;51.07;94922.22;5095168;28;20830;-83
2021/08/24 05:47:38;;;;;;;12.97;10.30;;;;;;;26.68;50.31;94906.13;5094872;28;20978;-84
2021/08/24 05:50:06;;;;;;;14.83;9.13;;;;;;;26.81;50.52;94922.91;5094909;28;20446;-85
2021/08/24 05:52:33;;;;;;;13.33;9.10;;;;;;;27.06;50.07;94922.78;5094697;28;20432;-84
2021/08/24 05:55:00;;;;;;;12.27;8.70;;;;;;;27.24;49.18;94926.44;5094869;28;20982;-83
2021/08/24 05:57:28;;;;;;;11.10;8.30;;;;;;;27.43;48.25;94919.88;5094830;28;20824;-83
2021/08/24 05:59:57;;;;;;;17.67;9.20;;;;;;;27.66;47.98;94919.91;5094667;28;20444;-83
2021/08/24 06:02:24;;;;;;;13.47;9.70;;;;;;;27.79;47.18;94913.47;5094499;28;21018;-83
2021/08/24 06:04:52;;;;;;;13.50;8.93;;;;;;;27.83;47.32;94913.81;5095325;28;20783;-83
2021/08/24 06:07:19;;;;;;;12.80;10.17;;;;;;;27.95;47.24;94920.00;5095413;28;20428;-84
2021/08/24 06:09:46;;;;;;;12.23;9.00;;;;;;;28.10;47.37;94909.56;5059669;28;20436;-83
2021/08/24 06:12:13;;;;;;;13.73;10.33;;;;;;;28.04;47.41;94915.88;5094728;28;20519;-84
2021/08/24 06:14:40;;;;;;;20.13;11.40;;;;;;;27.71;47.81;94919.22;5094782;28;20884;-83
2021/08/24 06:17:09;;;;;;;13.43;10.60;;;;;;;27.81;48.07;94902.44;5094362;28;20519;-83
2021/08/24 06:19:35;;;;;;;11.53;9.37;;;;;;;27.70;47.08;94902.22;5094686;28;20498;-83
2021/08/24 06:22:03;;;;;;;12.70;8.93;;;;;;;27.61;48.57;94900.91;5093258;28;20527;-84
2021/08/24 06:24:32;;;;;;;10.07;9.07;;;;;;;27.70;47.87;94904.91;5093396;28;20515;-83
2021/08/24 06:27:00;;;;;;;10.53;9.57;;;;;;;27.82;48.68;94896.81;5093321;28;20443;-83
2021/08/24 06:29:27;;;;;;;12.07;9.00;;;;;;;27.89;47.37;94897.50;5093193;28;20562;-83
2021/08/24 06:31:59;;;;;;;19.80;10.57;;;;;;;27.97;47.05;94901.69;5093317;28;20523;-83
2021/08/24 06:34:29;;;;;;;12.17;9.13;;;;;;;28.09;47.41;94899.81;5093583;28;20478;-83
2021/08/24 06:36:56;;;;;;;12.50;10.73;;;;;;;28.07;46.80;94900.06;5093006;28;20451;-83
2021/08/24 06:39:23;;;;;;;12.10;9.33;;;;;;;28.03;46.51;94893.47;5093860;28;20535;-83
2021/08/24 06:41:50;;;;;;;10.03;8.67;;;;;;;27.97;46.25;94905.22;5093011;28;20455;-83
2021/08/24 06:44:17;;;;;;;13.73;8.87;;;;;;;27.89;47.76;94902.06;5092424;28;20527;-83
2021/08/24 06:46:44;;;;;;;10.97;8.57;;;;;;;28.01;47.99;94895.59;5093747;28;20440;-83
2021/08/24 06:49:11;;;;;;;11.10;9.97;;;;;;;28.15;47.02;94898.84;5093894;28;20450;-83
2021/08/24 06:51:39;;;;;;;10.40;9.40;;;;;;;28.38;45.87;94903.41;5058366;28;20451;-83
2021/08/24 06:54:06;;;;;;;12.20;8.60;;;;;;;28.45;45.76;94904.06;5093991;28;20527;-83
2021/08/24 06:56:35;;;;;;;17.37;8.90;;;;;;;28.58;45.70;94908.34;5093839;28;20472;-83
2021/08/24 06:59:03;;;;;;;11.53;10.30;;;;;;;28.71;45.35;94905.38;5093566;28;20423;-83
2021/08/24 07:04:51;;;;;;;12.03;8.77;;;;;;;28.81;45.27;94905.53;5083041;28;20448;-83
2021/08/24 07:07:20;;;;;;;10.80;9.40;;;;;;;28.71;44.52;94899.97;5073329;28;20927;-82
2021/08/24 07:09:47;;;;;;;9.77;8.77;;;;;;;28.73;44.43;94905.94;5073831;28;20432;-83
2021/08/24 07:12:13;;;;;;;12.53;9.53;;;;;;;28.79;45.44;94901.44;5073610;28;20831;-82
2021/08/24 07:15:10;;;;;;;12.73;10.17;;;;;;;28.69;46.03;94902.09;5073151;28;20555;-83
2021/08/24 07:17:37;;;;;;;17.00;9.63;;;;;;;28.65;45.33;94907.16;5073629;28;20873;-82
2021/08/24 07:20:05;;;;;;;21.60;10.43;;;;;;;28.49;45.06;94899.00;5073517;28;20421;-84
2021/08/24 07:22:34;;;;;;;14.37;11.80;;;;;;;28.52;45.03;94898.53;5038146;28;20521;-82
2021/08/24 07:25:02;;;;;;;10.53;8.73;;;;;;;28.24;45.11;94899.28;5073377;28;20466;-83
2021/08/24 07:27:29;;;;;;;16.57;9.67;;;;;;;28.41;45.31;94899.41;5072613;28;20440;-83
2021/08/24 07:29:56;;;;;;;13.63;9.83;;;;;;;28.42;45.92;94904.56;5072904;28;20571;-83
2021/08/24 07:32:23;;;;;;;16.23;9.33;;;;;;;28.40;45.40;94895.88;5072978;28;20524;-82
2021/08/24 07:34:50;;;;;;;10.43;9.00;;;;;;;28.56;45.42;94902.38;5072997;28;20518;-85
2021/08/24 07:37:17;;;;;;;13.50;9.43;;;;;;;28.80;45.15;94903.09;5073209;28;20944;-81
2021/08/24 07:39:45;;;;;;;14.83;10.07;;;;;;;28.79;44.59;94901.44;5073206;28;20507;-80
2021/08/24 07:42:12;;;;;;;10.33;9.30;;;;;;;28.84;44.04;94899.66;5072709;28;20532;-81
2021/08/24 07:44:39;;;;;;;10.20;8.30;;;;;;;29.04;44.37;94890.31;5038154;28;20447;-81
2021/08/24 07:47:07;;;;;;;13.37;8.83;;;;;;;29.27;44.19;94888.25;5072118;28;20439;-82
2021/08/24 07:49:35;;;;;;;13.87;9.10;;;;;;;29.55;43.70;94889.25;5053064;28;20491;-82
2021/08/24 07:52:02;;;;;;;9.40;8.50;;;;;;;29.76;42.51;94880.34;5053100;28;20446;-82
2021/08/24 07:54:29;;;;;;;11.13;9.20;;;;;;;30.03;41.61;94885.06;5053100;28;20496;-81
2021/08/24 07:57:00;;;;;;;12.73;8.40;;;;;;;30.21;41.89;94885.59;5053096;28;20513;-81
2021/08/24 07:59:27;;;;;;;11.63;8.90;;;;;;;30.34;40.59;94886.25;5062523;28;20448;-83
2021/08/24 08:01:55;;;;;;;9.67;8.53;;;;;;;30.57;40.19;94888.69;5073013;28;20439;-82
2021/08/24 08:14:28;;;;;;;14.40;9.17;;;;;;;30.76;38.69;94881.88;5063122;28;20486;-83
2021/08/24 08:16:55;;;;;;;9.30;8.40;;;;;;;30.96;39.13;94877.75;5025260;28;20853;-84
2021/08/24 08:19:22;;;;;;;8.80;8.10;;;;;;;30.96;38.42;94883.16;5041592;28;20455;-81
2021/08/24 08:21:49;;;;;;;9.37;8.30;;;;;;;31.04;37.51;94879.97;5076346;28;20458;-84
2021/08/24 08:24:16;;;;;;;11.00;8.10;;;;;;;31.14;37.19;94890.91;5074849;28;20440;-84
2021/08/24 08:26:43;;;;;;;11.43;8.30;;;;;;;31.00;37.63;94868.84;5074358;28;20557;-84
2021/08/24 08:29:12;;;;;;;16.20;7.87;;;;;;;30.87;36.57;94880.09;5073988;28;20447;-84
2021/08/24 08:31:43;;;;;;;10.33;7.60;;;;;;;30.80;37.14;94874.88;5075324;28;20465;-84
2021/08/24 08:34:11;;;;;;;8.13;7.30;;;;;;;30.90;37.33;94878.75;5074794;28;20935;-84
2021/08/24 08:36:38;;;;;;;9.00;8.20;;;;;;;30.92;37.81;94873.88;5072915;28;20476;-82
2021/08/24 08:39:06;;;;;;;9.00;8.20;;;;;;;30.69;37.71;94878.56;5066925;28;20880;-83
2021/08/24 08:41:36;;;;;;;8.77;7.67;;;;;;;30.88;36.54;94864.63;5074323;28;20523;-83
2021/08/24 08:44:13;;;;;;;8.90;8.10;;;;;;;31.03;36.47;94867.50;5040628;28;20461;-83
2021/08/24 08:46:50;;;;;;;10.20;8.00;;;;;;;31.13;36.92;94867.56;5074634;28;20480;-84
2021/08/24 08:49:30;;;;;;;9.47;8.57;;;;;;;31.02;38.59;94868.56;5074436;28;20440;-83
2021/08/24 08:52:06;;;;;;;11.13;9.43;;;;;;;30.97;38.79;94853.09;5056454;28;20445;-83
2021/08/24 08:54:46;;;;;;;9.63;8.40;;;;;;;30.92;37.86;94855.72;5074732;28;20516;-84
2021/08/24 08:57:16;;;;;;;10.50;9.50;;;;;;;30.60;37.98;94858.41;5074163;28;20535;-84
2021/08/24 08:59:48;;;;;;;8.37;7.57;;;;;;;30.67;38.57;94858.22;5072729;28;20441;-83
2021/08/24 09:02:29;;;;;;;8.77;7.97;;;;;;;30.53;37.92;94849.66;5074819;28;20466;-83
2021/08/24 09:04:58;;;;;;;16.23;8.20;;;;;;;30.46;38.88;94846.31;5073074;28;20448;-83
2021/08/24 09:07:32;;;;;;;10.13;8.10;;;;;;;30.71;38.66;94843.09;5074778;28;20455;-83
2021/08/24 09:09:59;;;;;;;9.53;7.20;;;;;;;30.64;35.32;94837.84;5073422;28;20453;-83
2021/08/24 09:12:29;;;;;;;10.10;7.77;;;;;;;30.67;35.56;94840.09;5073567;28;20445;-83
2021/08/24 09:15:01;;;;;;;10.10;7.17;;;;;;;30.72;36.48;94834.69;5071863;28;20825;-83
2021/08/24 09:17:33;;;;;;;8.27;6.60;;;;;;;30.89;35.60;94839.97;5074387;28;20440;-83
2021/08/24 09:20:06;;;;;;;7.60;6.63;;;;;;;31.01;36.23;94831.69;5073166;28;20459;-83
2021/08/24 09:22:34;;;;;;;8.43;7.73;;;;;;;31.11;36.10;94832.59;5074878;28;20524;-83
2021/08/24 09:25:16;;;;;;;12.00;6.57;;;;;;;31.24;34.02;94823.25;5074223;28;20440;-83
2021/08/24 09:27:52;;;;;;;7.77;7.07;;;;;;;31.26;33.10;94825.69;5075217;28;20531;-83
2021/08/24 09:52:13;;;;;;;8.73;7.60;;;;;;;31.59;33.71;94814.50;5074416;28;20460;-84
2021/08/24 09:54:43;;;;;;;7.57;6.87;;;;;;;31.64;34.70;94808.28;5073504;28;20445;-84
2021/08/24 09:57:21;;;;;;;14.43;7.40;;;;;;;31.68;33.55;94801.25;5071889;28;20484;-83
2021/08/24 09:59:55;;;;;;;7.53;6.93;;;;;;;31.67;33.43;94799.63;5024431;28;20436;-84
2021/08/24 10:02:36;;;;;;;7.20;6.60;;;;;;;31.54;32.29;94805.53;5073202;28;20522;-83
2021/08/24 10:05:03;;;;;;;8.17;7.50;;;;;;;31.56;33.04;94792.50;5073288;28;20480;-83
2021/08/24 10:07:34;;;;;;;7.47;6.87;;;;;;;31.51;32.46;94795.19;5072436;28;20441;-83
2021/08/24 10:10:02;;;;;;;9.43;7.30;;;;;;;31.39;31.44;94785.34;5021785;28;20953;-83
2021/08/24 10:12:33;;;;;;;8.00;7.30;;;;;;;31.31;33.46;94783.16;5073039;28;20528;-83
2021/08/24 10:15:19;;;;;;;11.20;7.67;;;;;;;31.28;32.80;94780.97;5072666;28;20548;-83
2021/08/24 10:17:46;;;;;;;9.43;7.20;;;;;;;31.21;33.01;94774.13;5071867;28;20768;-82
2021/08/24 10:20:24;;;;;;;7.60;6.90;;;;;;;31.04;32.57;94774.25;5072521;28;20935;-83
2021/08/24 10:26:34;;;;;;;8.90;7.83;;;;;;;30.52;33.15;94773.00;5072825;28;20458;-83
2021/08/24 10:29:03;;;;;;;10.17;6.83;;;;;;;30.43;34.35;94776.44;5073316;28;20448;-83
2021/08/24 10:31:34;;;;;;;13.70;7.77;;;;;;;30.38;34.91;94769.06;5073459;28;20545;-83
2021/08/24 10:34:05;;;;;;;8.17;7.10;;;;;;;30.44;32.89;94768.03;5073759;28;20447;-83
2021/08/24 10:36:35;;;;;;;8.10;7.40;;;;;;;30.58;33.76;94763.00;5072775;28;20461;-83
2021/08/24 10:39:06;;;;;;;19.00;9.07;;;;;;;30.70;33.84;94766.41;5072036;28;20633;-83
2021/08/24 10:41:40;;;;;;;14.97;8.27;;;;;;;30.85;34.22;94752.16;5072969;28;20512;-83
2021/08/24 10:44:22;;;;;;;13.70;8.47;;;;;;;31.01;33.78;94750.38;5072290;28;20447;-83
2021/08/24 10:47:02;;;;;;;8.30;7.53;;;;;;;31.05;33.92;94754.19;5072545;28;20445;-83
2021/08/24 10:49:29;;;;;;;10.47;7.90;;;;;;;31.06;32.62;94745.81;5071892;28;20441;-83
2021/08/24 10:52:04;;;;;;;8.60;7.43;;;;;;;31.14;32.46;94748.03;5069585;28;20499;-83
2021/08/24 10:54:42;;;;;;;7.93;7.33;;;;;;;31.19;31.82;94741.84;5070234;28;20444;-83
2021/08/24 10:57:26;;;;;;;7.93;7.07;;;;;;;31.24;32.27;94744.59;5068690;28;20480;-83
2021/08/24 11:00:02;;;;;;;9.57;8.23;;;;;;;31.31;33.11;94736.22;5069336;28;20445;-83
2021/08/24 11:02:42;;;;;;;8.43;6.90;;;;;;;31.02;32.04;94739.28;5070106;28;20448;-82
2021/08/24 11:05:27;;;;;;;6.47;5.87;;;;;;;31.04;31.85;94734.41;5070059;28;20443;-83
2021/08/24 11:08:03;;;;;;;7.33;6.63;;;;;;;30.99;31.45;94736.28;5069874;28;20927;-83
2021/08/24 11:10:40;;;;;;;7.57;6.80;;;;;;;31.10;32.06;94721.69;5069152;28;20433;-83
2021/08/24 11:13:28;;;;;;;9.13;7.27;;;;;;;31.14;31.29;94726.34;5069514;28;20451;-83
2021/08/24 11:16:04;;;;;;;7.27;6.57;;;;;;;31.17;31.54;94713.34;5070528;28;20484;-83
2021/08/24 11:18:44;;;;;;;8.07;6.80;;;;;;;31.09;31.76;94709.22;5012767;28;20524;-83
2021/08/24 11:21:19;;;;;;;7.63;6.90;;;;;;;31.07;32.31;94716.81;5070016;28;20456;-83
2021/08/24 11:24:03;;;;;;;7.17;6.57;;;;;;;31.19;31.33;94713.91;5070731;28;20455;-83
2021/08/24 11:26:36;;;;;;;7.27;6.53;;;;;;;31.22;31.58;94711.50;5015860;28;20552;-83
2021/08/24 11:29:17;;;;;;;9.43;6.87;;;;;;;31.08;30.83;94710.31;5052118;28;20533;-82
2021/08/24 11:31:48;;;;;;;7.00;6.30;;;;;;;31.04;33.13;94722.75;5069194;28;20548;-83
2021/08/24 11:34:21;;;;;;;6.53;6.03;;;;;;;31.18;30.83;94718.53;5068812;28;20441;-82
2021/08/24 11:36:53;;;;;;;9.90;6.77;;;;;;;31.33;32.15;94713.19;5062114;28;20567;-82
2021/08/24 11:39:23;;;;;;;6.97;6.27;;;;;;;31.42;32.89;94710.78;5070279;28;20449;-83
2021/08/24 11:41:53;;;;;;;11.83;6.13;;;;;;;31.37;31.03;94700.72;5069515;28;20510;-83
2021/08/24 11:44:24;;;;;;;7.07;6.30;;;;;;;31.35;30.33;94712.94;5069885;28;20439;-83
2021/08/24 11:46:54;;;;;;;7.10;6.40;;;;;;;31.27;29.37;94700.69;5068794;28;20528;-83
2021/08/24 11:49:26;;;;;;;7.53;6.93;;;;;;;31.24;29.57;94698.50;5075285;28;20510;-82
2021/08/24 11:51:59;;;;;;;7.17;6.47;;;;;;;31.30;32.09;94697.44;5072688;28;21000;-83
2021/08/24 11:54:38;;;;;;;7.77;7.10;;;;;;;31.32;29.79;94702.59;5073686;28;20807;-84
2021/08/24 11:57:10;;;;;;;8.13;7.17;;;;;;;31.32;29.50;94705.31;5073675;28;20480;-82
2021/08/24 11:59:44;;;;;;;7.40;6.70;;;;;;;31.27;29.58;94702.59;5073787;28;20441;-83
2021/08/24 12:02:17;;;;;;;7.57;6.90;;;;;;;31.25;29.78;94696.63;5073305;28;20511;-82
2021/08/24 12:04:48;;;;;;;7.33;6.67;;;;;;;31.20;29.63;94702.81;5069746;28;20547;-83
2021/08/24 12:07:24;;;;;;;6.87;6.33;;;;;;;31.19;29.53;94703.88;5073031;28;22032;-82
2021/08/24 12:09:54;;;;;;;10.07;6.60;;;;;;;31.15;29.57;94697.31;5025501;28;20830;-83
2021/08/24 12:12:50;;;;;;;6.93;6.23;;;;;;;31.03;30.16;94702.16;5072589;28;20478;-83
2021/08/24 12:15:32;;;;;;;7.33;6.73;;;;;;;31.01;30.22;94701.59;5073112;28;20441;-83
2021/08/24 12:18:07;;;;;;;7.50;6.80;;;;;;;31.13;27.93;94696.78;5073882;28;20490;-83
2021/08/24 12:20:39;;;;;;;7.07;6.47;;;;;;;31.22;27.49;94692.50;5073335;28;20458;-84
2021/08/24 12:23:09;;;;;;;6.70;6.10;;;;;;;31.17;27.73;94687.06;5072073;28;20445;-84
2021/08/24 12:25:39;;;;;;;5.70;5.30;;;;;;;31.28;27.25;94690.66;5074563;28;20449;-83